Terminal Aerodrome Forecast
Issued by NWS

Home | Current Version | Previous Version | Text Only | Print | Product List | Glossary On
Versions: 1 2 3 4 5 6 7 8 9 10 11 12 13 14 15 16 17 18 19
000
FTUS46 KSEW 201100
TAFBLI
TAF
KBLI 201120Z 2012/2112 17010G18KT P6SM -RA OVC030
      TEMPO 2012/2016 4SM -RA BR OVC022
     FM202100 17006KT P6SM -SHRA OVC040
     FM210000 14005KT P6SM VCSH BKN040 OVC060=

USA.gov is the U.S. government's official web portal to all federal, state and local government web resources and services.